createdAt,value
2022-09-28T00:01:45.779Z,15.97
2022-09-28T00:05:42.847Z,15.87
2022-09-28T00:09:39.765Z,15.86
2022-09-28T00:13:36.774Z,16.19
2022-09-28T00:17:34.127Z,15.99
2022-09-28T00:21:35.743Z,15.86
2022-09-28T00:25:33.237Z,16.11
2022-09-28T00:29:32.515Z,15.73
2022-09-28T00:33:29.457Z,15.75
2022-09-28T00:37:26.709Z,15.99
2022-09-28T00:41:27.199Z,15.82
2022-09-28T00:45:26.955Z,15.84
2022-09-28T00:49:41.968Z,16.06
2022-09-28T00:53:44.101Z,15.99
2022-09-28T00:57:49.016Z,15.80
2022-09-28T01:01:46.033Z,15.64
2022-09-28T01:05:47.055Z,15.79
2022-09-28T01:09:46.162Z,15.79
2022-09-28T01:13:44.835Z,15.51
2022-09-28T01:18:33.309Z,15.71
2022-09-28T01:23:19.384Z,15.30
2022-09-28T01:27:36.431Z,15.08
2022-09-28T01:31:36.532Z,15.22
2022-09-28T01:35:57.554Z,15.39
2022-09-28T01:39:57.765Z,15.15
2022-09-28T01:43:59.610Z,15.40
2022-09-28T01:48:05.815Z,15.51
2022-09-28T01:52:36.212Z,15.43
2022-09-28T01:56:55.869Z,15.41
2022-09-28T02:01:05.309Z,15.58
2022-09-28T02:05:18.574Z,15.48
2022-09-28T02:09:33.014Z,15.49
2022-09-28T02:13:38.821Z,15.46
2022-09-28T02:17:35.836Z,15.26
2022-09-28T02:21:58.276Z,15.30
2022-09-28T02:26:12.155Z,15.04
2022-09-28T02:30:10.368Z,15.51
2022-09-28T02:34:09.427Z,15.51
2022-09-28T02:38:06.438Z,14.96
2022-09-28T02:42:21.636Z,15.42
2022-09-28T02:46:30.102Z,15.74
2022-09-28T02:51:00.863Z,15.27
2022-09-28T02:55:15.778Z,15.50
2022-09-28T02:59:35.317Z,15.47
2022-09-28T03:03:55.052Z,15.14
2022-09-28T03:08:10.575Z,15.29
2022-09-28T03:12:16.534Z,15.56
2022-09-28T03:16:18.269Z,15.31
2022-09-28T03:20:18.210Z,15.71
2022-09-28T03:24:15.262Z,15.73
2022-09-28T03:28:12.243Z,15.24
2022-09-28T03:32:10.995Z,15.68
2022-09-28T03:36:09.609Z,15.88
2022-09-28T03:40:08.060Z,15.56
2022-09-28T03:44:05.141Z,15.78
2022-09-28T03:48:03.245Z,15.68
2022-09-28T03:52:00.725Z,15.68
2022-09-28T03:56:13.551Z,15.22
2022-09-28T04:00:12.888Z,14.88
2022-09-28T04:04:13.545Z,15.19
2022-09-28T04:08:10.557Z,15.48
2022-09-28T04:12:07.583Z,15.40
2022-09-28T04:16:05.519Z,15.75
2022-09-28T04:20:05.009Z,15.55
2022-09-28T04:24:11.553Z,15.56
2022-09-28T04:28:28.055Z,15.72
2022-09-28T04:32:25.886Z,15.73
2022-09-28T04:36:25.124Z,15.77
2022-09-28T04:40:22.296Z,15.65
2022-09-28T04:44:19.853Z,16.01
2022-09-28T04:48:17.992Z,15.82
2022-09-28T04:52:37.786Z,15.95
2022-09-28T04:56:34.810Z,15.85
2022-09-28T05:00:35.259Z,15.66
2022-09-28T05:04:56.574Z,15.40
2022-09-28T05:09:16.815Z,15.20
2022-09-28T05:13:14.512Z,15.16
2022-09-28T05:17:11.604Z,15.29
2022-09-28T05:21:28.078Z,15.49
2022-09-28T05:25:25.461Z,15.41
2022-09-28T05:29:37.154Z,15.54
2022-09-28T05:33:53.641Z,15.30
2022-09-28T05:37:51.093Z,15.48
2022-09-28T05:41:48.278Z,15.44
2022-09-28T05:45:45.666Z,15.79
2022-09-28T05:49:42.752Z,15.74
2022-09-28T05:53:41.542Z,15.83
2022-09-28T05:57:39.064Z,15.87
2022-09-28T06:01:37.127Z,15.71
2022-09-28T06:05:39.615Z,15.89
2022-09-28T06:09:36.689Z,15.59
2022-09-28T06:14:02.847Z,15.66
2022-09-28T06:18:05.334Z,15.71
2022-09-28T06:22:08.314Z,15.89
2022-09-28T06:26:13.682Z,15.90
2022-09-28T06:30:11.325Z,15.83
2022-09-28T06:34:11.685Z,16.06
2022-09-28T06:38:09.414Z,16.14
2022-09-28T06:42:07.387Z,16.23
2022-09-28T06:46:33.811Z,16.24
2022-09-28T06:50:50.879Z,16.44
2022-09-28T06:54:56.589Z,16.17
2022-09-28T06:59:00.358Z,16.12
2022-09-28T07:02:58.500Z,15.88
2022-09-28T07:07:26.115Z,16.72
2022-09-28T07:11:46.737Z,16.72
2022-09-28T07:16:02.101Z,16.89
2022-09-28T07:20:07.123Z,16.87
2022-09-28T07:24:09.344Z,16.87
2022-09-28T07:28:25.463Z,16.75
2022-09-28T07:32:52.204Z,16.52
2022-09-28T07:36:58.972Z,17.01
2022-09-28T07:41:12.233Z,17.94
2022-09-28T07:45:24.586Z,17.56
2022-09-28T07:49:23.031Z,17.22
2022-09-28T07:53:43.939Z,16.93
2022-09-28T07:58:01.197Z,17.46
2022-09-28T08:02:26.914Z,17.24
2022-09-28T08:06:24.150Z,17.60
2022-09-28T08:10:21.149Z,18.30
2022-09-28T08:14:47.701Z,17.91
2022-09-28T08:19:03.145Z,17.75
2022-09-28T08:23:09.310Z,17.23
2022-09-28T08:27:08.757Z,17.63
2022-09-28T08:31:07.421Z,18.08
2022-09-28T08:35:26.259Z,18.01
2022-09-28T08:39:40.581Z,17.94
2022-09-28T08:44:25.770Z,18.36
2022-09-28T08:49:20.734Z,19.42
2022-09-28T08:54:06.994Z,19.43
2022-09-28T08:58:32.985Z,18.96
2022-09-28T09:02:34.788Z,19.01
2022-09-28T09:07:18.430Z,18.58
2022-09-28T09:11:44.454Z,18.78
2022-09-28T09:16:06.173Z,19.24
2022-09-28T09:21:06.724Z,19.28
2022-09-28T09:25:19.371Z,18.95
2022-09-28T09:29:20.842Z,20.13
2022-09-28T09:33:40.281Z,21.42
2022-09-28T09:38:41.471Z,21.45
2022-09-28T09:43:08.413Z,20.59
2022-09-28T09:47:21.055Z,20.57
2022-09-28T09:52:01.008Z,20.37
2022-09-28T09:56:12.737Z,19.77
2022-09-28T10:00:48.062Z,21.54
2022-09-28T10:05:06.872Z,20.82
2022-09-28T10:09:13.792Z,21.19
2022-09-28T10:13:11.458Z,20.95
2022-09-28T10:17:16.437Z,21.87
2022-09-28T10:21:37.609Z,22.32
2022-09-28T10:26:26.036Z,22.38
2022-09-28T10:30:25.712Z,22.89
2022-09-28T10:34:29.263Z,22.55
2022-09-28T10:38:31.061Z,22.20
2022-09-28T10:42:37.041Z,22.55
2022-09-28T10:46:38.998Z,22.54
2022-09-28T10:50:42.479Z,23.52
2022-09-28T10:54:53.773Z,23.59
2022-09-28T10:58:52.378Z,22.94
2022-09-28T11:03:25.225Z,21.29
2022-09-28T11:07:30.773Z,20.97
2022-09-28T11:11:29.729Z,20.11
2022-09-28T11:15:33.947Z,20.26
2022-09-28T11:19:35.771Z,20.04
2022-09-28T11:23:32.784Z,20.16
2022-09-28T11:27:41.698Z,20.42
2022-09-28T11:31:39.850Z,21.62
2022-09-28T11:35:50.587Z,23.58
2022-09-28T11:40:43.671Z,25.78
2022-09-28T11:44:49.455Z,27.56
2022-09-28T11:48:56.710Z,28.60
2022-09-28T11:53:18.171Z,28.22
2022-09-28T11:57:25.235Z,27.63
2022-09-28T12:01:40.770Z,25.81
2022-09-28T12:05:49.935Z,24.02
2022-09-28T12:10:08.302Z,24.51
2022-09-28T12:14:18.632Z,25.18
2022-09-28T12:18:26.988Z,25.43
2022-09-28T12:22:43.102Z,25.88
2022-09-28T12:26:55.088Z,26.33
2022-09-28T12:30:54.750Z,23.26
2022-09-28T12:34:51.778Z,21.83
2022-09-28T12:39:19.150Z,20.89
2022-09-28T12:43:25.298Z,21.99
2022-09-28T12:48:08.219Z,23.50
2022-09-28T12:52:31.994Z,22.85
2022-09-28T12:57:29.980Z,22.35
2022-09-28T13:01:45.458Z,22.80
2022-09-28T13:06:21.121Z,22.89
2022-09-28T13:10:36.178Z,22.68
2022-09-28T13:15:23.621Z,22.35
2022-09-28T13:19:50.231Z,22.42
2022-09-28T13:23:51.472Z,22.88
2022-09-28T13:28:01.660Z,23.79
2022-09-28T13:32:03.443Z,23.85
2022-09-28T13:36:00.653Z,24.16
2022-09-28T13:39:59.750Z,24.48
2022-09-28T13:44:11.646Z,23.51
2022-09-28T13:48:20.668Z,22.76
2022-09-28T13:52:29.538Z,22.70
2022-09-28T13:56:57.436Z,22.10
2022-09-28T14:01:21.645Z,22.06
2022-09-28T14:05:21.746Z,22.34
2022-09-28T14:09:43.987Z,22.95
2022-09-28T14:13:43.976Z,23.49
2022-09-28T14:17:43.858Z,23.96
2022-09-28T14:21:59.507Z,23.45
2022-09-28T14:26:11.680Z,23.52
2022-09-28T14:30:11.593Z,23.40
2022-09-28T14:34:32.442Z,22.84
2022-09-28T14:38:55.412Z,22.19
2022-09-28T14:43:24.378Z,22.13
2022-09-28T14:47:35.423Z,22.19
2022-09-28T14:51:35.546Z,22.31
2022-09-28T14:55:45.837Z,22.19
2022-09-28T14:59:46.315Z,22.20
2022-09-28T15:03:48.784Z,21.91
2022-09-28T15:07:51.947Z,21.69
2022-09-28T15:11:49.024Z,21.45
2022-09-28T15:15:52.126Z,21.34
2022-09-28T15:19:58.364Z,21.19
2022-09-28T15:23:55.315Z,21.20
2022-09-28T15:28:06.599Z,21.22
2022-09-28T15:32:04.156Z,21.15
2022-09-28T15:36:08.343Z,21.42
2022-09-28T15:40:17.652Z,20.90
2022-09-28T15:44:30.063Z,21.11
2022-09-28T15:48:45.881Z,20.75
2022-09-28T15:53:02.595Z,20.71
2022-09-28T15:57:02.882Z,20.47
2022-09-28T16:01:36.733Z,20.26
2022-09-28T16:05:57.325Z,20.44
2022-09-28T16:10:05.277Z,20.48
2022-09-28T16:14:24.221Z,20.12
2022-09-28T16:18:23.620Z,20.17
2022-09-28T16:22:26.748Z,20.31
2022-09-28T16:26:33.623Z,20.42
2022-09-28T16:30:34.712Z,20.12
2022-09-28T16:34:31.683Z,19.95
2022-09-28T16:38:28.912Z,19.46
2022-09-28T16:42:28.384Z,19.32
2022-09-28T16:46:37.619Z,18.81
2022-09-28T16:50:34.754Z,18.71
2022-09-28T16:54:50.135Z,18.32
2022-09-28T16:58:49.288Z,18.72
2022-09-28T17:02:50.905Z,18.59
2022-09-28T17:06:47.991Z,18.55
2022-09-28T17:11:24.209Z,18.62
2022-09-28T17:15:21.918Z,18.49
2022-09-28T17:19:23.884Z,18.26
2022-09-28T17:23:21.387Z,18.22
2022-09-28T17:27:21.071Z,18.16
2022-09-28T17:31:18.123Z,18.14
2022-09-28T17:35:25.910Z,18.34
2022-09-28T17:39:25.096Z,18.28
2022-09-28T17:43:22.491Z,18.32
2022-09-28T17:47:19.484Z,18.16
2022-09-28T17:51:19.067Z,17.95
2022-09-28T17:55:16.045Z,18.15
2022-09-28T17:59:17.466Z,18.27
2022-09-28T18:03:21.615Z,18.15
2022-09-28T18:07:18.880Z,18.09
2022-09-28T18:11:17.440Z,17.94
2022-09-28T18:15:15.362Z,17.89
2022-09-28T18:19:12.564Z,17.44
2022-09-28T18:23:09.577Z,17.35
2022-09-28T18:27:06.570Z,17.17
2022-09-28T18:31:13.513Z,17.16
2022-09-28T18:35:11.255Z,16.84
2022-09-28T18:39:08.327Z,16.79
2022-09-28T18:43:05.300Z,16.47
2022-09-28T18:47:02.509Z,16.47
2022-09-28T18:50:59.484Z,16.61
2022-09-28T18:54:56.607Z,16.49
2022-09-28T18:58:53.628Z,16.61
2022-09-28T19:02:50.843Z,16.18
2022-09-28T19:06:51.888Z,16.34
2022-09-28T19:10:49.259Z,16.08
2022-09-28T19:14:46.468Z,16.06
2022-09-28T19:18:44.056Z,16.09
2022-09-28T19:22:41.157Z,15.96
2022-09-28T19:26:38.155Z,16.05
2022-09-28T19:30:35.274Z,16.13
2022-09-28T19:34:32.297Z,16.03
2022-09-28T19:38:32.389Z,16.16
2022-09-28T19:42:29.364Z,15.80
2022-09-28T19:46:27.059Z,15.86
2022-09-28T19:50:24.423Z,15.74
2022-09-28T19:54:22.325Z,15.58
2022-09-28T19:58:23.375Z,15.35
2022-09-28T20:02:21.311Z,15.22
2022-09-28T20:06:18.298Z,15.21
2022-09-28T20:10:15.412Z,15.19
2022-09-28T20:14:18.543Z,15.15
2022-09-28T20:18:16.472Z,15.22
2022-09-28T20:22:13.462Z,15.13
2022-09-28T20:26:11.820Z,15.05
2022-09-28T20:30:09.907Z,15.04
2022-09-28T20:34:07.868Z,14.84
2022-09-28T20:38:09.110Z,14.69
2022-09-28T20:42:06.587Z,14.72
2022-09-28T20:46:07.011Z,14.66
2022-09-28T20:50:06.698Z,14.39
2022-09-28T20:54:03.729Z,14.60
2022-09-28T20:58:04.811Z,14.63
2022-09-28T21:02:01.926Z,14.28
2022-09-28T21:05:59.141Z,14.55
2022-09-28T21:09:56.113Z,14.43
2022-09-28T21:14:00.624Z,14.50
2022-09-28T21:17:57.593Z,14.19
2022-09-28T21:21:54.721Z,14.70
2022-09-28T21:26:24.649Z,14.55
2022-09-28T21:30:21.688Z,14.60
2022-09-28T21:34:21.121Z,14.21
2022-09-28T21:38:18.184Z,14.41
2022-09-28T21:42:15.185Z,14.00
2022-09-28T21:46:12.243Z,14.00
2022-09-28T21:50:09.633Z,13.93
2022-09-28T21:54:06.946Z,13.90
2022-09-28T21:58:03.898Z,13.86
2022-09-28T22:02:00.887Z,13.95
2022-09-28T22:05:58.711Z,13.80
2022-09-28T22:09:55.662Z,13.73
2022-09-28T22:13:56.170Z,13.63
2022-09-28T22:17:53.158Z,13.41
2022-09-28T22:21:50.127Z,13.47
2022-09-28T22:25:47.109Z,13.20
2022-09-28T22:29:44.558Z,13.27
2022-09-28T22:33:41.612Z,13.33
2022-09-28T22:37:38.639Z,13.04
2022-09-28T22:41:35.668Z,12.90
2022-09-28T22:45:32.633Z,12.76
2022-09-28T22:49:29.583Z,13.06
2022-09-28T22:53:28.524Z,13.26
2022-09-28T22:57:25.528Z,13.20
2022-09-28T23:01:26.422Z,13.01
2022-09-28T23:05:25.760Z,13.03
2022-09-28T23:09:22.730Z,13.12
2022-09-28T23:13:19.956Z,13.10
2022-09-28T23:17:16.955Z,12.87
2022-09-28T23:21:17.721Z,12.92
2022-09-28T23:25:17.828Z,12.95
2022-09-28T23:29:14.916Z,12.85
2022-09-28T23:33:20.163Z,12.81
2022-09-28T23:37:17.136Z,12.69
2022-09-28T23:41:14.199Z,12.46
2022-09-28T23:45:11.596Z,12.71
2022-09-28T23:49:08.572Z,12.74
2022-09-28T23:53:05.764Z,12.38
2022-09-28T23:57:02.775Z,12.42
